sensor_id;sensor_type;location;lat;lon;timestamp;P1;durP1;ratioP1;P2;durP2;ratioP2
32347;SDS011;18821;44.800;10.326;2024-02-26T00:01:40;2.15;;;1.30;;
32347;SDS011;18821;44.800;10.326;2024-02-26T00:04:06;3.03;;;1.42;;
32347;SDS011;18821;44.800;10.326;2024-02-26T00:06:32;2.08;;;1.13;;
32347;SDS011;18821;44.800;10.326;2024-02-26T00:08:58;3.25;;;1.20;;
32347;SDS011;18821;44.800;10.326;2024-02-26T00:11:24;4.93;;;1.15;;
32347;SDS011;18821;44.800;10.326;2024-02-26T00:13:49;1.77;;;1.13;;
32347;SDS011;18821;44.800;10.326;2024-02-26T00:16:15;2.67;;;1.13;;
32347;SDS011;18821;44.800;10.326;2024-02-26T00:18:41;4.35;;;1.20;;
32347;SDS011;18821;44.800;10.326;2024-02-26T00:21:07;2.50;;;1.02;;
32347;SDS011;18821;44.800;10.326;2024-02-26T00:23:33;1.52;;;1.00;;
32347;SDS011;18821;44.800;10.326;2024-02-26T00:25:59;2.80;;;1.30;;
32347;SDS011;18821;44.800;10.326;2024-02-26T00:28:25;1.40;;;1.10;;
32347;SDS011;18821;44.800;10.326;2024-02-26T00:30:52;8.45;;;1.00;;
32347;SDS011;18821;44.800;10.326;2024-02-26T00:33:21;7.40;;;1.45;;
32347;SDS011;18821;44.800;10.326;2024-02-26T00:35:47;2.70;;;1.17;;
32347;SDS011;18821;44.800;10.326;2024-02-26T00:38:14;1.98;;;1.10;;
32347;SDS011;18821;44.800;10.326;2024-02-26T00:40:40;3.38;;;1.40;;
32347;SDS011;18821;44.800;10.326;2024-02-26T00:43:06;4.30;;;1.70;;
32347;SDS011;18821;44.800;10.326;2024-02-26T00:45:32;2.33;;;1.45;;
32347;SDS011;18821;44.800;10.326;2024-02-26T00:47:58;3.05;;;1.10;;
32347;SDS011;18821;44.800;10.326;2024-02-26T00:50:26;3.00;;;0.90;;
32347;SDS011;18821;44.800;10.326;2024-02-26T00:52:52;2.75;;;1.08;;
32347;SDS011;18821;44.800;10.326;2024-02-26T00:55:18;1.90;;;1.25;;
32347;SDS011;18821;44.800;10.326;2024-02-26T00:57:44;2.90;;;1.83;;
32347;SDS011;18821;44.800;10.326;2024-02-26T01:00:10;4.10;;;2.75;;
32347;SDS011;18821;44.800;10.326;2024-02-26T01:02:37;1.63;;;1.25;;
32347;SDS011;18821;44.800;10.326;2024-02-26T01:05:04;1.55;;;1.00;;
32347;SDS011;18821;44.800;10.326;2024-02-26T01:07:31;3.15;;;1.40;;
32347;SDS011;18821;44.800;10.326;2024-02-26T01:10:01;1.67;;;1.35;;
32347;SDS011;18821;44.800;10.326;2024-02-26T01:12:28;8.02;;;1.92;;
32347;SDS011;18821;44.800;10.326;2024-02-26T01:14:54;4.15;;;1.70;;
32347;SDS011;18821;44.800;10.326;2024-02-26T01:17:20;2.88;;;1.50;;
32347;SDS011;18821;44.800;10.326;2024-02-26T01:19:46;5.35;;;1.75;;
32347;SDS011;18821;44.800;10.326;2024-02-26T01:22:12;3.30;;;1.70;;
32347;SDS011;18821;44.800;10.326;2024-02-26T01:24:38;3.33;;;1.90;;
32347;SDS011;18821;44.800;10.326;2024-02-26T01:27:04;3.92;;;2.45;;
32347;SDS011;18821;44.800;10.326;2024-02-26T01:29:30;5.70;;;2.03;;
32347;SDS011;18821;44.800;10.326;2024-02-26T01:31:56;4.50;;;1.77;;
32347;SDS011;18821;44.800;10.326;2024-02-26T01:34:22;3.17;;;1.80;;
32347;SDS011;18821;44.800;10.326;2024-02-26T01:36:48;3.00;;;1.85;;
32347;SDS011;18821;44.800;10.326;2024-02-26T01:39:14;4.53;;;1.92;;
32347;SDS011;18821;44.800;10.326;2024-02-26T01:41:40;4.18;;;1.98;;
32347;SDS011;18821;44.800;10.326;2024-02-26T01:44:06;1.90;;;1.63;;
32347;SDS011;18821;44.800;10.326;2024-02-26T01:46:33;4.93;;;2.42;;
32347;SDS011;18821;44.800;10.326;2024-02-26T01:49:01;3.20;;;1.88;;
32347;SDS011;18821;44.800;10.326;2024-02-26T01:51:28;4.20;;;2.00;;
32347;SDS011;18821;44.800;10.326;2024-02-26T01:53:56;3.25;;;2.20;;
32347;SDS011;18821;44.800;10.326;2024-02-26T01:56:23;3.40;;;2.20;;
32347;SDS011;18821;44.800;10.326;2024-02-26T01:58:53;4.22;;;2.05;;
32347;SDS011;18821;44.800;10.326;2024-02-26T02:01:19;2.88;;;2.00;;
32347;SDS011;18821;44.800;10.326;2024-02-26T02:03:50;4.15;;;2.42;;
32347;SDS011;18821;44.800;10.326;2024-02-26T02:06:17;3.72;;;2.40;;
32347;SDS011;18821;44.800;10.326;2024-02-26T02:08:44;3.85;;;2.30;;
32347;SDS011;18821;44.800;10.326;2024-02-26T02:11:10;6.55;;;2.60;;
32347;SDS011;18821;44.800;10.326;2024-02-26T02:13:40;3.17;;;1.90;;
32347;SDS011;18821;44.800;10.326;2024-02-26T02:16:06;5.55;;;2.10;;
32347;SDS011;18821;44.800;10.326;2024-02-26T02:18:32;13.52;;;2.95;;
32347;SDS011;18821;44.800;10.326;2024-02-26T02:21:02;4.50;;;2.13;;
32347;SDS011;18821;44.800;10.326;2024-02-26T02:23:28;5.43;;;2.47;;
32347;SDS011;18821;44.800;10.326;2024-02-26T02:25:54;4.32;;;2.30;;
32347;SDS011;18821;44.800;10.326;2024-02-26T02:28:23;3.13;;;2.20;;
32347;SDS011;18821;44.800;10.326;2024-02-26T02:30:51;4.75;;;2.28;;
32347;SDS011;18821;44.800;10.326;2024-02-26T02:33:17;6.80;;;2.60;;
32347;SDS011;18821;44.800;10.326;2024-02-26T02:35:43;3.63;;;2.35;;
32347;SDS011;18821;44.800;10.326;2024-02-26T02:38:09;4.82;;;2.80;;
32347;SDS011;18821;44.800;10.326;2024-02-26T02:40:35;2.95;;;1.98;;
32347;SDS011;18821;44.800;10.326;2024-02-26T02:43:02;3.75;;;2.17;;
32347;SDS011;18821;44.800;10.326;2024-02-26T02:45:28;8.52;;;3.28;;
32347;SDS011;18821;44.800;10.326;2024-02-26T02:47:54;3.63;;;2.50;;
32347;SDS011;18821;44.800;10.326;2024-02-26T02:50:20;4.40;;;2.38;;
32347;SDS011;18821;44.800;10.326;2024-02-26T02:52:46;3.70;;;2.33;;
32347;SDS011;18821;44.800;10.326;2024-02-26T02:55:13;2.97;;;2.08;;
32347;SDS011;18821;44.800;10.326;2024-02-26T02:57:39;4.80;;;1.80;;
32347;SDS011;18821;44.800;10.326;2024-02-26T03:00:07;4.20;;;2.10;;
32347;SDS011;18821;44.800;10.326;2024-02-26T03:02:37;2.42;;;1.88;;
32347;SDS011;18821;44.800;10.326;2024-02-26T03:05:03;2.83;;;1.65;;
32347;SDS011;18821;44.800;10.326;2024-02-26T03:07:29;2.65;;;1.75;;
32347;SDS011;18821;44.800;10.326;2024-02-26T03:09:55;2.60;;;2.28;;
32347;SDS011;18821;44.800;10.326;2024-02-26T03:12:21;4.97;;;2.25;;
32347;SDS011;18821;44.800;10.326;2024-02-26T03:14:47;4.97;;;2.35;;
32347;SDS011;18821;44.800;10.326;2024-02-26T03:17:13;7.80;;;2.05;;
32347;SDS011;18821;44.800;10.326;2024-02-26T03:19:39;5.63;;;1.98;;
32347;SDS011;18821;44.800;10.326;2024-02-26T03:22:05;4.68;;;1.90;;
32347;SDS011;18821;44.800;10.326;2024-02-26T03:24:32;4.47;;;2.08;;
32347;SDS011;18821;44.800;10.326;2024-02-26T03:26:58;4.00;;;2.13;;
32347;SDS011;18821;44.800;10.326;2024-02-26T03:29:24;4.47;;;2.13;;
32347;SDS011;18821;44.800;10.326;2024-02-26T03:31:53;6.13;;;2.35;;
32347;SDS011;18821;44.800;10.326;2024-02-26T03:34:19;6.47;;;4.03;;
32347;SDS011;18821;44.800;10.326;2024-02-26T03:36:45;8.10;;;5.03;;
32347;SDS011;18821;44.800;10.326;2024-02-26T03:39:11;9.25;;;5.53;;
32347;SDS011;18821;44.800;10.326;2024-02-26T03:41:37;8.73;;;5.10;;
32347;SDS011;18821;44.800;10.326;2024-02-26T03:44:04;13.60;;;6.50;;
32347;SDS011;18821;44.800;10.326;2024-02-26T03:46:30;12.38;;;6.88;;
32347;SDS011;18821;44.800;10.326;2024-02-26T03:48:56;12.15;;;7.32;;
32347;SDS011;18821;44.800;10.326;2024-02-26T03:51:22;14.45;;;7.95;;
32347;SDS011;18821;44.800;10.326;2024-02-26T03:53:48;14.68;;;9.20;;
32347;SDS011;18821;44.800;10.326;2024-02-26T03:56:14;17.17;;;9.52;;
32347;SDS011;18821;44.800;10.326;2024-02-26T03:58:40;17.08;;;9.95;;
32347;SDS011;18821;44.800;10.326;2024-02-26T04:01:09;17.80;;;10.70;;
32347;SDS011;18821;44.800;10.326;2024-02-26T04:03:35;19.25;;;10.25;;
32347;SDS011;18821;44.800;10.326;2024-02-26T04:06:01;18.55;;;10.35;;
32347;SDS011;18821;44.800;10.326;2024-02-26T04:08:28;17.77;;;10.35;;
32347;SDS011;18821;44.800;10.326;2024-02-26T04:10:54;16.60;;;10.25;;
32347;SDS011;18821;44.800;10.326;2024-02-26T04:13:20;19.25;;;10.95;;
32347;SDS011;18821;44.800;10.326;2024-02-26T04:15:46;16.05;;;10.10;;
32347;SDS011;18821;44.800;10.326;2024-02-26T04:18:12;17.67;;;10.13;;
32347;SDS011;18821;44.800;10.326;2024-02-26T04:20:39;16.50;;;9.73;;
32347;SDS011;18821;44.800;10.326;2024-02-26T04:23:07;19.05;;;10.27;;
32347;SDS011;18821;44.800;10.326;2024-02-26T04:25:33;18.70;;;9.48;;
32347;SDS011;18821;44.800;10.326;2024-02-26T04:27:59;13.40;;;8.50;;
32347;SDS011;18821;44.800;10.326;2024-02-26T04:30:25;11.07;;;7.43;;
32347;SDS011;18821;44.800;10.326;2024-02-26T04:32:51;12.60;;;7.45;;
32347;SDS011;18821;44.800;10.326;2024-02-26T04:35:17;13.73;;;8.02;;
32347;SDS011;18821;44.800;10.326;2024-02-26T04:37:43;13.80;;;8.20;;
32347;SDS011;18821;44.800;10.326;2024-02-26T04:40:09;14.45;;;8.15;;
32347;SDS011;18821;44.800;10.326;2024-02-26T04:42:35;12.23;;;8.20;;
32347;SDS011;18821;44.800;10.326;2024-02-26T04:45:01;12.02;;;7.55;;
32347;SDS011;18821;44.800;10.326;2024-02-26T04:47:27;9.30;;;6.53;;
32347;SDS011;18821;44.800;10.326;2024-02-26T04:49:53;12.43;;;6.97;;
32347;SDS011;18821;44.800;10.326;2024-02-26T04:52:19;12.05;;;6.93;;
32347;SDS011;18821;44.800;10.326;2024-02-26T04:54:45;13.80;;;8.07;;
32347;SDS011;18821;44.800;10.326;2024-02-26T04:57:11;11.23;;;7.40;;
32347;SDS011;18821;44.800;10.326;2024-02-26T04:59:37;18.58;;;9.45;;
32347;SDS011;18821;44.800;10.326;2024-02-26T05:02:03;16.55;;;9.40;;
32347;SDS011;18821;44.800;10.326;2024-02-26T05:04:29;14.70;;;9.55;;
32347;SDS011;18821;44.800;10.326;2024-02-26T05:06:55;17.27;;;10.57;;
32347;SDS011;18821;44.800;10.326;2024-02-26T05:09:22;17.85;;;11.07;;
32347;SDS011;18821;44.800;10.326;2024-02-26T05:11:48;24.63;;;13.30;;
32347;SDS011;18821;44.800;10.326;2024-02-26T05:14:14;22.77;;;13.05;;
32347;SDS011;18821;44.800;10.326;2024-02-26T05:16:39;27.55;;;12.70;;
32347;SDS011;18821;44.800;10.326;2024-02-26T05:19:06;18.00;;;10.50;;
32347;SDS011;18821;44.800;10.326;2024-02-26T05:21:32;21.00;;;13.93;;
32347;SDS011;18821;44.800;10.326;2024-02-26T05:23:59;21.05;;;14.18;;
32347;SDS011;18821;44.800;10.326;2024-02-26T05:26:25;24.95;;;15.57;;
32347;SDS011;18821;44.800;10.326;2024-02-26T05:28:52;22.55;;;14.48;;
32347;SDS011;18821;44.800;10.326;2024-02-26T05:31:18;22.85;;;12.60;;
32347;SDS011;18821;44.800;10.326;2024-02-26T05:33:44;28.10;;;15.43;;
32347;SDS011;18821;44.800;10.326;2024-02-26T05:36:10;24.80;;;14.70;;
32347;SDS011;18821;44.800;10.326;2024-02-26T05:38:42;29.77;;;16.63;;
32347;SDS011;18821;44.800;10.326;2024-02-26T05:41:11;26.15;;;16.35;;
32347;SDS011;18821;44.800;10.326;2024-02-26T05:43:37;31.98;;;17.60;;
32347;SDS011;18821;44.800;10.326;2024-02-26T05:46:03;31.52;;;17.60;;
32347;SDS011;18821;44.800;10.326;2024-02-26T05:48:29;31.05;;;17.70;;
32347;SDS011;18821;44.800;10.326;2024-02-26T05:50:57;30.02;;;18.08;;
32347;SDS011;18821;44.800;10.326;2024-02-26T05:53:23;31.05;;;19.40;;
32347;SDS011;18821;44.800;10.326;2024-02-26T05:55:49;29.88;;;18.77;;
32347;SDS011;18821;44.800;10.326;2024-02-26T05:58:15;29.35;;;19.23;;
32347;SDS011;18821;44.800;10.326;2024-02-26T06:00:41;33.35;;;19.38;;
32347;SDS011;18821;44.800;10.326;2024-02-26T06:03:07;28.30;;;18.45;;
32347;SDS011;18821;44.800;10.326;2024-02-26T06:05:32;32.00;;;18.60;;
32347;SDS011;18821;44.800;10.326;2024-02-26T06:07:58;28.98;;;19.45;;
32347;SDS011;18821;44.800;10.326;2024-02-26T06:10:24;32.97;;;18.90;;
32347;SDS011;18821;44.800;10.326;2024-02-26T06:12:50;33.03;;;18.88;;
32347;SDS011;18821;44.800;10.326;2024-02-26T06:15:16;26.10;;;18.25;;
32347;SDS011;18821;44.800;10.326;2024-02-26T06:17:42;27.80;;;18.95;;
32347;SDS011;18821;44.800;10.326;2024-02-26T06:20:08;30.80;;;19.58;;
32347;SDS011;18821;44.800;10.326;2024-02-26T06:22:39;30.23;;;18.67;;
32347;SDS011;18821;44.800;10.326;2024-02-26T06:25:06;30.83;;;19.08;;
32347;SDS011;18821;44.800;10.326;2024-02-26T06:27:32;32.78;;;19.67;;
32347;SDS011;18821;44.800;10.326;2024-02-26T06:29:58;34.22;;;20.92;;
32347;SDS011;18821;44.800;10.326;2024-02-26T06:32:24;29.63;;;20.55;;
32347;SDS011;18821;44.800;10.326;2024-02-26T06:34:52;35.70;;;21.10;;
32347;SDS011;18821;44.800;10.326;2024-02-26T06:37:17;43.60;;;22.83;;
32347;SDS011;18821;44.800;10.326;2024-02-26T06:39:43;34.50;;;21.45;;
32347;SDS011;18821;44.800;10.326;2024-02-26T06:42:09;39.47;;;22.25;;
32347;SDS011;18821;44.800;10.326;2024-02-26T06:44:35;37.53;;;22.85;;
32347;SDS011;18821;44.800;10.326;2024-02-26T06:47:01;35.53;;;23.08;;
32347;SDS011;18821;44.800;10.326;2024-02-26T06:49:27;40.33;;;21.55;;
32347;SDS011;18821;44.800;10.326;2024-02-26T06:51:53;37.10;;;24.08;;
32347;SDS011;18821;44.800;10.326;2024-02-26T06:54:19;36.65;;;21.45;;
32347;SDS011;18821;44.800;10.326;2024-02-26T06:56:45;37.28;;;23.10;;
32347;SDS011;18821;44.800;10.326;2024-02-26T06:59:12;44.25;;;25.30;;
32347;SDS011;18821;44.800;10.326;2024-02-26T07:01:40;39.10;;;24.42;;
32347;SDS011;18821;44.800;10.326;2024-02-26T07:04:06;40.95;;;23.20;;
32347;SDS011;18821;44.800;10.326;2024-02-26T07:06:32;40.83;;;25.77;;
32347;SDS011;18821;44.800;10.326;2024-02-26T07:08:58;46.47;;;27.70;;
32347;SDS011;18821;44.800;10.326;2024-02-26T07:11:24;37.35;;;23.90;;
32347;SDS011;18821;44.800;10.326;2024-02-26T07:13:50;40.03;;;24.92;;
32347;SDS011;18821;44.800;10.326;2024-02-26T07:16:16;38.97;;;26.75;;
32347;SDS011;18821;44.800;10.326;2024-02-26T07:18:42;43.53;;;27.25;;
32347;SDS011;18821;44.800;10.326;2024-02-26T07:21:14;41.45;;;26.00;;
32347;SDS011;18821;44.800;10.326;2024-02-26T07:23:40;47.05;;;27.10;;
32347;SDS011;18821;44.800;10.326;2024-02-26T07:26:06;50.45;;;27.30;;
32347;SDS011;18821;44.800;10.326;2024-02-26T07:28:33;45.28;;;27.92;;
32347;SDS011;18821;44.800;10.326;2024-02-26T07:30:59;43.45;;;27.77;;
32347;SDS011;18821;44.800;10.326;2024-02-26T07:33:25;43.83;;;28.08;;
32347;SDS011;18821;44.800;10.326;2024-02-26T07:35:51;46.25;;;27.90;;
32347;SDS011;18821;44.800;10.326;2024-02-26T07:38:19;44.92;;;28.65;;
32347;SDS011;18821;44.800;10.326;2024-02-26T07:40:44;37.85;;;25.95;;
32347;SDS011;18821;44.800;10.326;2024-02-26T07:43:10;47.92;;;26.05;;
32347;SDS011;18821;44.800;10.326;2024-02-26T07:45:36;38.88;;;26.35;;
32347;SDS011;18821;44.800;10.326;2024-02-26T07:48:02;41.08;;;25.83;;
32347;SDS011;18821;44.800;10.326;2024-02-26T07:50:28;39.95;;;23.25;;
32347;SDS011;18821;44.800;10.326;2024-02-26T07:52:54;50.38;;;26.75;;
32347;SDS011;18821;44.800;10.326;2024-02-26T07:55:20;36.13;;;24.48;;
32347;SDS011;18821;44.800;10.326;2024-02-26T07:57:47;40.53;;;25.95;;
32347;SDS011;18821;44.800;10.326;2024-02-26T08:00:13;46.55;;;27.60;;
32347;SDS011;18821;44.800;10.326;2024-02-26T08:02:42;40.15;;;26.15;;
32347;SDS011;18821;44.800;10.326;2024-02-26T08:05:09;43.47;;;26.90;;
32347;SDS011;18821;44.800;10.326;2024-02-26T08:07:35;33.60;;;22.17;;
32347;SDS011;18821;44.800;10.326;2024-02-26T08:10:01;39.38;;;24.45;;
32347;SDS011;18821;44.800;10.326;2024-02-26T08:12:27;39.25;;;23.75;;
32347;SDS011;18821;44.800;10.326;2024-02-26T08:14:53;31.95;;;22.08;;
32347;SDS011;18821;44.800;10.326;2024-02-26T08:17:19;35.05;;;20.75;;
32347;SDS011;18821;44.800;10.326;2024-02-26T08:19:45;32.50;;;20.25;;
32347;SDS011;18821;44.800;10.326;2024-02-26T08:22:11;29.92;;;18.65;;
32347;SDS011;18821;44.800;10.326;2024-02-26T08:24:44;21.48;;;15.80;;
32347;SDS011;18821;44.800;10.326;2024-02-26T08:27:10;28.02;;;16.65;;
32347;SDS011;18821;44.800;10.326;2024-02-26T08:29:36;24.40;;;16.13;;
32347;SDS011;18821;44.800;10.326;2024-02-26T08:32:02;21.27;;;14.88;;
32347;SDS011;18821;44.800;10.326;2024-02-26T08:34:28;25.75;;;15.48;;
32347;SDS011;18821;44.800;10.326;2024-02-26T08:36:54;22.08;;;13.95;;
32347;SDS011;18821;44.800;10.326;2024-02-26T08:39:20;21.33;;;14.52;;
32347;SDS011;18821;44.800;10.326;2024-02-26T08:41:46;25.63;;;15.63;;
32347;SDS011;18821;44.800;10.326;2024-02-26T08:44:12;32.08;;;19.85;;
32347;SDS011;18821;44.800;10.326;2024-02-26T08:46:37;23.15;;;13.90;;
32347;SDS011;18821;44.800;10.326;2024-02-26T08:49:03;26.45;;;15.35;;
32347;SDS011;18821;44.800;10.326;2024-02-26T08:51:29;23.90;;;11.90;;
32347;SDS011;18821;44.800;10.326;2024-02-26T08:53:55;19.42;;;11.80;;
32347;SDS011;18821;44.800;10.326;2024-02-26T08:56:21;16.27;;;11.18;;
32347;SDS011;18821;44.800;10.326;2024-02-26T08:58:47;19.27;;;11.60;;
32347;SDS011;18821;44.800;10.326;2024-02-26T09:01:19;20.70;;;11.43;;
32347;SDS011;18821;44.800;10.326;2024-02-26T09:03:45;24.13;;;11.73;;
32347;SDS011;18821;44.800;10.326;2024-02-26T09:06:11;21.15;;;12.02;;
32347;SDS011;18821;44.800;10.326;2024-02-26T09:08:39;21.67;;;12.50;;
32347;SDS011;18821;44.800;10.326;2024-02-26T09:11:05;23.80;;;12.65;;
32347;SDS011;18821;44.800;10.326;2024-02-26T09:13:32;22.40;;;13.20;;
32347;SDS011;18821;44.800;10.326;2024-02-26T09:15:57;20.35;;;12.45;;
32347;SDS011;18821;44.800;10.326;2024-02-26T09:18:24;21.92;;;11.43;;
32347;SDS011;18821;44.800;10.326;2024-02-26T09:20:50;21.08;;;13.18;;
32347;SDS011;18821;44.800;10.326;2024-02-26T09:23:16;20.17;;;11.60;;
32347;SDS011;18821;44.800;10.326;2024-02-26T09:25:42;21.77;;;13.52;;
32347;SDS011;18821;44.800;10.326;2024-02-26T09:28:08;19.40;;;12.32;;
32347;SDS011;18821;44.800;10.326;2024-02-26T09:30:34;19.45;;;13.00;;
32347;SDS011;18821;44.800;10.326;2024-02-26T09:32:59;19.63;;;12.82;;
32347;SDS011;18821;44.800;10.326;2024-02-26T09:35:25;18.63;;;11.60;;
32347;SDS011;18821;44.800;10.326;2024-02-26T09:37:52;16.75;;;12.10;;
32347;SDS011;18821;44.800;10.326;2024-02-26T09:40:19;19.35;;;11.23;;
32347;SDS011;18821;44.800;10.326;2024-02-26T09:42:45;19.15;;;11.18;;
32347;SDS011;18821;44.800;10.326;2024-02-26T09:45:21;17.42;;;11.65;;
32347;SDS011;18821;44.800;10.326;2024-02-26T09:47:48;21.20;;;11.23;;
32347;SDS011;18821;44.800;10.326;2024-02-26T09:50:16;17.73;;;11.18;;
32347;SDS011;18821;44.800;10.326;2024-02-26T09:52:43;17.15;;;10.65;;
32347;SDS011;18821;44.800;10.326;2024-02-26T09:55:09;15.25;;;10.85;;
32347;SDS011;18821;44.800;10.326;2024-02-26T09:57:39;18.52;;;11.00;;
32347;SDS011;18821;44.800;10.326;2024-02-26T10:02:41;19.98;;;11.25;;
32347;SDS011;18821;44.800;10.326;2024-02-26T10:05:07;21.88;;;10.90;;
32347;SDS011;18821;44.800;10.326;2024-02-26T10:07:38;17.23;;;11.32;;
32347;SDS011;18821;44.800;10.326;2024-02-26T10:10:04;15.75;;;11.10;;
32347;SDS011;18821;44.800;10.326;2024-02-26T10:12:30;19.13;;;11.75;;
32347;SDS011;18821;44.800;10.326;2024-02-26T10:14:57;16.17;;;11.07;;
32347;SDS011;18821;44.800;10.326;2024-02-26T10:17:23;17.02;;;11.00;;
32347;SDS011;18821;44.800;10.326;2024-02-26T10:19:50;19.05;;;10.60;;
32347;SDS011;18821;44.800;10.326;2024-02-26T10:22:17;16.80;;;10.60;;
32347;SDS011;18821;44.800;10.326;2024-02-26T10:24:42;17.10;;;10.10;;
32347;SDS011;18821;44.800;10.326;2024-02-26T10:27:08;19.08;;;12.18;;
32347;SDS011;18821;44.800;10.326;2024-02-26T10:29:35;19.45;;;11.60;;
32347;SDS011;18821;44.800;10.326;2024-02-26T10:32:01;15.43;;;10.55;;
32347;SDS011;18821;44.800;10.326;2024-02-26T10:34:27;23.27;;;9.65;;
32347;SDS011;18821;44.800;10.326;2024-02-26T10:36:53;21.02;;;11.55;;
32347;SDS011;18821;44.800;10.326;2024-02-26T10:39:19;15.07;;;9.15;;
32347;SDS011;18821;44.800;10.326;2024-02-26T10:41:45;17.02;;;9.40;;
32347;SDS011;18821;44.800;10.326;2024-02-26T10:44:12;17.27;;;10.52;;
32347;SDS011;18821;44.800;10.326;2024-02-26T10:46:40;17.42;;;10.68;;
32347;SDS011;18821;44.800;10.326;2024-02-26T10:49:08;15.73;;;10.25;;
32347;SDS011;18821;44.800;10.326;2024-02-26T10:51:45;23.35;;;12.65;;
32347;SDS011;18821;44.800;10.326;2024-02-26T10:54:16;18.98;;;10.40;;
32347;SDS011;18821;44.800;10.326;2024-02-26T10:56:44;16.33;;;10.52;;
32347;SDS011;18821;44.800;10.326;2024-02-26T10:59:13;15.70;;;9.73;;
32347;SDS011;18821;44.800;10.326;2024-02-26T11:01:40;20.73;;;10.77;;
32347;SDS011;18821;44.800;10.326;2024-02-26T11:04:11;19.08;;;10.90;;
32347;SDS011;18821;44.800;10.326;2024-02-26T11:06:38;14.07;;;9.57;;
32347;SDS011;18821;44.800;10.326;2024-02-26T11:09:05;16.15;;;9.75;;
32347;SDS011;18821;44.800;10.326;2024-02-26T11:11:33;16.42;;;10.43;;
32347;SDS011;18821;44.800;10.326;2024-02-26T11:14:03;17.02;;;10.73;;
32347;SDS011;18821;44.800;10.326;2024-02-26T11:16:29;22.25;;;10.60;;
32347;SDS011;18821;44.800;10.326;2024-02-26T11:18:56;16.45;;;10.07;;
32347;SDS011;18821;44.800;10.326;2024-02-26T11:21:24;19.38;;;10.02;;
32347;SDS011;18821;44.800;10.326;2024-02-26T11:23:53;16.77;;;11.20;;
32347;SDS011;18821;44.800;10.326;2024-02-26T11:26:20;14.55;;;9.25;;
32347;SDS011;18821;44.800;10.326;2024-02-26T11:28:47;16.70;;;9.55;;
32347;SDS011;18821;44.800;10.326;2024-02-26T11:31:14;18.58;;;9.73;;
32347;SDS011;18821;44.800;10.326;2024-02-26T11:33:40;14.38;;;9.45;;
32347;SDS011;18821;44.800;10.326;2024-02-26T11:36:10;13.40;;;9.05;;
32347;SDS011;18821;44.800;10.326;2024-02-26T11:38:37;15.85;;;8.52;;
32347;SDS011;18821;44.800;10.326;2024-02-26T11:41:06;17.77;;;9.70;;
32347;SDS011;18821;44.800;10.326;2024-02-26T11:48:54;13.80;;;8.43;;
32347;SDS011;18821;44.800;10.326;2024-02-26T11:51:39;15.13;;;8.85;;
32347;SDS011;18821;44.800;10.326;2024-02-26T11:54:07;15.80;;;9.20;;
32347;SDS011;18821;44.800;10.326;2024-02-26T11:56:34;13.65;;;9.27;;
32347;SDS011;18821;44.800;10.326;2024-02-26T11:59:00;15.48;;;9.18;;
32347;SDS011;18821;44.800;10.326;2024-02-26T12:04:21;12.70;;;8.40;;
32347;SDS011;18821;44.800;10.326;2024-02-26T12:06:51;15.40;;;9.07;;
32347;SDS011;18821;44.800;10.326;2024-02-26T12:09:33;13.30;;;8.07;;
32347;SDS011;18821;44.800;10.326;2024-02-26T12:12:04;16.35;;;8.95;;
32347;SDS011;18821;44.800;10.326;2024-02-26T12:14:39;13.77;;;8.50;;
32347;SDS011;18821;44.800;10.326;2024-02-26T12:17:19;14.00;;;7.85;;
32347;SDS011;18821;44.800;10.326;2024-02-26T12:19:46;12.98;;;7.15;;
32347;SDS011;18821;44.800;10.326;2024-02-26T12:22:12;10.85;;;6.70;;
32347;SDS011;18821;44.800;10.326;2024-02-26T12:24:40;11.05;;;7.47;;
32347;SDS011;18821;44.800;10.326;2024-02-26T12:27:07;11.77;;;7.22;;
32347;SDS011;18821;44.800;10.326;2024-02-26T12:29:33;17.52;;;7.70;;
32347;SDS011;18821;44.800;10.326;2024-02-26T12:31:59;14.02;;;7.10;;
32347;SDS011;18821;44.800;10.326;2024-02-26T12:34:25;10.00;;;6.53;;
32347;SDS011;18821;44.800;10.326;2024-02-26T12:36:52;8.95;;;6.47;;
32347;SDS011;18821;44.800;10.326;2024-02-26T12:39:20;7.80;;;5.30;;
32347;SDS011;18821;44.800;10.326;2024-02-26T12:41:46;10.32;;;5.75;;
32347;SDS011;18821;44.800;10.326;2024-02-26T12:44:24;9.27;;;5.43;;
32347;SDS011;18821;44.800;10.326;2024-02-26T12:46:51;7.82;;;4.15;;
32347;SDS011;18821;44.800;10.326;2024-02-26T12:49:24;4.53;;;2.58;;
32347;SDS011;18821;44.800;10.326;2024-02-26T12:51:51;5.18;;;2.60;;
32347;SDS011;18821;44.800;10.326;2024-02-26T12:54:17;4.57;;;2.20;;
32347;SDS011;18821;44.800;10.326;2024-02-26T12:56:43;3.83;;;1.95;;
32347;SDS011;18821;44.800;10.326;2024-02-26T12:59:09;4.68;;;1.92;;
32347;SDS011;18821;44.800;10.326;2024-02-26T13:01:35;10.20;;;1.88;;
32347;SDS011;18821;44.800;10.326;2024-02-26T13:04:01;2.33;;;1.38;;
32347;SDS011;18821;44.800;10.326;2024-02-26T13:06:32;5.45;;;1.70;;
32347;SDS011;18821;44.800;10.326;2024-02-26T13:08:59;5.80;;;2.13;;
32347;SDS011;18821;44.800;10.326;2024-02-26T13:11:25;3.92;;;1.65;;
32347;SDS011;18821;44.800;10.326;2024-02-26T13:13:51;4.93;;;1.80;;
32347;SDS011;18821;44.800;10.326;2024-02-26T13:16:17;4.20;;;2.00;;
32347;SDS011;18821;44.800;10.326;2024-02-26T13:18:43;6.05;;;1.90;;
32347;SDS011;18821;44.800;10.326;2024-02-26T13:21:13;2.85;;;2.20;;
32347;SDS011;18821;44.800;10.326;2024-02-26T13:23:40;5.25;;;2.13;;
32347;SDS011;18821;44.800;10.326;2024-02-26T13:26:07;2.95;;;1.70;;
32347;SDS011;18821;44.800;10.326;2024-02-26T13:28:37;6.55;;;2.20;;
32347;SDS011;18821;44.800;10.326;2024-02-26T13:31:02;7.63;;;2.33;;
32347;SDS011;18821;44.800;10.326;2024-02-26T13:33:30;4.05;;;2.20;;
32347;SDS011;18821;44.800;10.326;2024-02-26T13:35:57;5.90;;;2.88;;
32347;SDS011;18821;44.800;10.326;2024-02-26T13:38:25;6.72;;;2.88;;
32347;SDS011;18821;44.800;10.326;2024-02-26T13:40:51;5.25;;;3.22;;
32347;SDS011;18821;44.800;10.326;2024-02-26T13:43:18;6.53;;;4.03;;
32347;SDS011;18821;44.800;10.326;2024-02-26T13:45:44;6.88;;;4.20;;
32347;SDS011;18821;44.800;10.326;2024-02-26T13:48:11;9.63;;;4.00;;
32347;SDS011;18821;44.800;10.326;2024-02-26T13:50:38;7.88;;;4.35;;
32347;SDS011;18821;44.800;10.326;2024-02-26T13:53:05;9.10;;;4.75;;
32347;SDS011;18821;44.800;10.326;2024-02-26T13:55:31;7.22;;;4.53;;
32347;SDS011;18821;44.800;10.326;2024-02-26T13:57:58;9.02;;;5.28;;
32347;SDS011;18821;44.800;10.326;2024-02-26T14:00:27;6.68;;;4.70;;
32347;SDS011;18821;44.800;10.326;2024-02-26T14:02:55;6.88;;;4.63;;
32347;SDS011;18821;44.800;10.326;2024-02-26T14:05:21;7.13;;;4.15;;
32347;SDS011;18821;44.800;10.326;2024-02-26T14:07:47;5.43;;;4.20;;
32347;SDS011;18821;44.800;10.326;2024-02-26T14:10:13;7.15;;;3.70;;
32347;SDS011;18821;44.800;10.326;2024-02-26T14:12:41;5.43;;;2.97;;
32347;SDS011;18821;44.800;10.326;2024-02-26T14:15:07;3.20;;;2.20;;
32347;SDS011;18821;44.800;10.326;2024-02-26T14:17:35;7.05;;;3.13;;
32347;SDS011;18821;44.800;10.326;2024-02-26T14:20:01;9.50;;;3.28;;
32347;SDS011;18821;44.800;10.326;2024-02-26T14:22:28;4.30;;;2.72;;
32347;SDS011;18821;44.800;10.326;2024-02-26T14:24:56;7.32;;;3.03;;
32347;SDS011;18821;44.800;10.326;2024-02-26T14:27:22;7.57;;;3.20;;
32347;SDS011;18821;44.800;10.326;2024-02-26T14:29:48;6.00;;;2.88;;